createdAt,value
2016-07-24T15:12:12.921Z,80.94
2016-07-24T15:17:12.189Z,79.78
2016-07-24T15:22:12.861Z,78.81
2016-07-24T15:27:12.842Z,78.27
2016-07-24T15:32:12.820Z,77.72
2016-07-24T15:37:12.794Z,77.72
2016-07-24T15:42:12.771Z,77.43
2016-07-24T15:47:12.755Z,77.62
2016-07-24T15:52:12.734Z,78.44
2016-07-24T15:57:12.016Z,79.08
2016-07-24T16:02:12.886Z,80.83
2016-07-24T16:07:12.675Z,81.67
2016-07-24T16:12:12.658Z,81.67
2016-07-24T16:17:12.634Z,82.35
2016-07-24T16:22:12.617Z,82.15
2016-07-24T16:27:12.590Z,81.53
2016-07-24T16:32:12.576Z,80.89
2016-07-24T16:37:12.552Z,81.09
2016-07-24T16:42:12.532Z,80.99
2016-07-24T16:47:12.513Z,81.76
2016-07-24T16:52:12.494Z,82.21
2016-07-24T16:57:12.481Z,82.6
2016-07-24T17:02:11.757Z,83.53
2016-07-24T17:07:12.440Z,84.11
2016-07-24T17:12:12.415Z,83.97
2016-07-24T17:17:12.386Z,84.27
2016-07-24T17:22:12.377Z,84.27
2016-07-24T17:27:12.354Z,83.49
2016-07-24T17:32:12.328Z,83.2
2016-07-24T17:37:11.608Z,83.59
2016-07-24T17:42:12.472Z,83.59
2016-07-24T17:47:12.266Z,84.46
2016-07-24T17:52:11.548Z,84.61
2016-07-24T17:57:11.523Z,83.94
2016-07-24T18:02:12.205Z,84.22
2016-07-24T18:07:12.189Z,84.03
2016-07-24T18:12:12.164Z,85.29
2016-07-24T18:17:12.141Z,85.58
2016-07-24T18:22:12.131Z,85.15
2016-07-24T18:27:12.101Z,84.96
2016-07-24T18:32:11.377Z,85.02
2016-07-24T21:10:07.327Z,98.92
2016-07-24T21:15:07.280Z,99.02
2016-07-24T21:20:07.242Z,99.4
2016-07-24T21:25:07.205Z,99.31
